sensor_id;sensor_type;location;lat;lon;timestamp;temperature;humidity
41058;DHT22;66768;48.884;2.258;2023-12-20T00:01:02;10.60;99.90
41058;DHT22;66768;48.884;2.258;2023-12-20T00:03:29;10.70;99.90
41058;DHT22;66768;48.884;2.258;2023-12-20T00:05:56;10.60;99.90
41058;DHT22;66768;48.884;2.258;2023-12-20T00:08:23;10.60;99.90
41058;DHT22;66768;48.884;2.258;2023-12-20T00:10:50;10.60;99.90
41058;DHT22;66768;48.884;2.258;2023-12-20T00:13:18;10.60;99.90
41058;DHT22;66768;48.884;2.258;2023-12-20T00:15:45;10.60;99.90
41058;DHT22;66768;48.884;2.258;2023-12-20T00:18:12;10.60;99.90
41058;DHT22;66768;48.884;2.258;2023-12-20T00:20:39;10.50;99.90
41058;DHT22;66768;48.884;2.258;2023-12-20T00:23:06;10.50;99.90
41058;DHT22;66768;48.884;2.258;2023-12-20T00:25:33;10.50;99.90
41058;DHT22;66768;48.884;2.258;2023-12-20T00:28:00;10.50;99.90
41058;DHT22;66768;48.884;2.258;2023-12-20T00:30:29;10.50;99.90
41058;DHT22;66768;48.884;2.258;2023-12-20T00:32:56;10.40;99.90
41058;DHT22;66768;48.884;2.258;2023-12-20T00:35:22;10.40;99.90
41058;DHT22;66768;48.884;2.258;2023-12-20T00:37:50;10.30;99.90
41058;DHT22;66768;48.884;2.258;2023-12-20T00:40:16;10.60;99.90
41058;DHT22;66768;48.884;2.258;2023-12-20T00:42:43;10.30;99.90
41058;DHT22;66768;48.884;2.258;2023-12-20T00:45:12;10.30;99.90
41058;DHT22;66768;48.884;2.258;2023-12-20T00:47:41;10.30;99.90
41058;DHT22;66768;48.884;2.258;2023-12-20T00:50:08;10.30;99.90
41058;DHT22;66768;48.884;2.258;2023-12-20T00:52:35;10.20;99.90
41058;DHT22;66768;48.884;2.258;2023-12-20T00:55:03;10.20;99.90
41058;DHT22;66768;48.884;2.258;2023-12-20T00:57:30;10.20;99.90
41058;DHT22;66768;48.884;2.258;2023-12-20T00:59:57;10.20;99.90
41058;DHT22;66768;48.884;2.258;2023-12-20T01:02:24;10.20;99.90
41058;DHT22;66768;48.884;2.258;2023-12-20T01:04:53;10.20;99.90
41058;DHT22;66768;48.884;2.258;2023-12-20T01:07:19;10.20;99.90
41058;DHT22;66768;48.884;2.258;2023-12-20T01:09:46;10.20;99.90
41058;DHT22;66768;48.884;2.258;2023-12-20T01:12:13;10.10;99.90
41058;DHT22;66768;48.884;2.258;2023-12-20T01:14:40;10.10;99.90
41058;DHT22;66768;48.884;2.258;2023-12-20T01:17:07;10.10;99.90
41058;DHT22;66768;48.884;2.258;2023-12-20T01:19:35;10.10;99.90
41058;DHT22;66768;48.884;2.258;2023-12-20T01:22:03;10.00;99.90
41058;DHT22;66768;48.884;2.258;2023-12-20T01:24:30;10.00;99.90
41058;DHT22;66768;48.884;2.258;2023-12-20T01:26:57;10.00;99.90
41058;DHT22;66768;48.884;2.258;2023-12-20T01:29:24;10.00;99.90
41058;DHT22;66768;48.884;2.258;2023-12-20T01:31:51;9.90;99.90
41058;DHT22;66768;48.884;2.258;2023-12-20T01:34:18;9.90;99.90
41058;DHT22;66768;48.884;2.258;2023-12-20T01:36:45;9.90;99.90
41058;DHT22;66768;48.884;2.258;2023-12-20T01:39:13;9.90;99.90
41058;DHT22;66768;48.884;2.258;2023-12-20T01:41:40;9.90;99.90
41058;DHT22;66768;48.884;2.258;2023-12-20T01:44:07;9.80;99.90
41058;DHT22;66768;48.884;2.258;2023-12-20T01:46:34;9.80;99.90
41058;DHT22;66768;48.884;2.258;2023-12-20T01:49:01;9.70;99.90
41058;DHT22;66768;48.884;2.258;2023-12-20T01:51:28;9.70;99.90
41058;DHT22;66768;48.884;2.258;2023-12-20T01:53:57;9.70;99.90
41058;DHT22;66768;48.884;2.258;2023-12-20T01:56:26;9.70;99.90
41058;DHT22;66768;48.884;2.258;2023-12-20T01:58:53;9.70;99.90
41058;DHT22;66768;48.884;2.258;2023-12-20T02:01:21;9.70;99.90
41058;DHT22;66768;48.884;2.258;2023-12-20T02:03:48;9.70;99.90
41058;DHT22;66768;48.884;2.258;2023-12-20T02:06:16;9.70;99.90
41058;DHT22;66768;48.884;2.258;2023-12-20T02:08:44;9.70;99.90
41058;DHT22;66768;48.884;2.258;2023-12-20T02:11:11;9.70;99.90
41058;DHT22;66768;48.884;2.258;2023-12-20T02:13:40;9.70;99.90
41058;DHT22;66768;48.884;2.258;2023-12-20T02:16:06;9.70;99.90
41058;DHT22;66768;48.884;2.258;2023-12-20T02:18:33;9.70;99.90
41058;DHT22;66768;48.884;2.258;2023-12-20T02:21:00;9.70;99.90
41058;DHT22;66768;48.884;2.258;2023-12-20T02:23:28;9.70;99.90
41058;DHT22;66768;48.884;2.258;2023-12-20T02:25:55;9.70;99.90
41058;DHT22;66768;48.884;2.258;2023-12-20T02:28:22;9.70;99.90
41058;DHT22;66768;48.884;2.258;2023-12-20T02:30:49;9.70;99.90
41058;DHT22;66768;48.884;2.258;2023-12-20T02:33:16;9.70;99.90
41058;DHT22;66768;48.884;2.258;2023-12-20T02:35:43;9.70;99.90
41058;DHT22;66768;48.884;2.258;2023-12-20T02:38:10;9.70;99.90
41058;DHT22;66768;48.884;2.258;2023-12-20T02:40:38;9.70;99.90
41058;DHT22;66768;48.884;2.258;2023-12-20T02:43:05;9.70;99.90
41058;DHT22;66768;48.884;2.258;2023-12-20T02:45:32;9.70;99.90
41058;DHT22;66768;48.884;2.258;2023-12-20T02:47:59;9.60;99.90
41058;DHT22;66768;48.884;2.258;2023-12-20T02:50:25;9.60;99.90
41058;DHT22;66768;48.884;2.258;2023-12-20T02:52:51;9.60;99.90
41058;DHT22;66768;48.884;2.258;2023-12-20T02:55:18;9.60;99.90
41058;DHT22;66768;48.884;2.258;2023-12-20T02:57:47;9.60;99.90
41058;DHT22;66768;48.884;2.258;2023-12-20T03:00:14;9.60;99.90
41058;DHT22;66768;48.884;2.258;2023-12-20T03:02:41;9.60;99.90
41058;DHT22;66768;48.884;2.258;2023-12-20T03:05:08;9.50;99.90
41058;DHT22;66768;48.884;2.258;2023-12-20T03:07:36;9.60;99.90
41058;DHT22;66768;48.884;2.258;2023-12-20T03:10:04;9.50;99.90
41058;DHT22;66768;48.884;2.258;2023-12-20T03:12:31;9.50;99.90
41058;DHT22;66768;48.884;2.258;2023-12-20T03:15:00;9.60;99.90
41058;DHT22;66768;48.884;2.258;2023-12-20T03:17:26;9.50;99.90
41058;DHT22;66768;48.884;2.258;2023-12-20T03:19:53;9.50;99.90
41058;DHT22;66768;48.884;2.258;2023-12-20T03:22:20;9.50;99.90
41058;DHT22;66768;48.884;2.258;2023-12-20T03:24:47;9.50;99.90
41058;DHT22;66768;48.884;2.258;2023-12-20T03:27:14;9.50;99.90
41058;DHT22;66768;48.884;2.258;2023-12-20T03:29:42;9.40;99.90
41058;DHT22;66768;48.884;2.258;2023-12-20T03:32:10;9.40;99.90
41058;DHT22;66768;48.884;2.258;2023-12-20T03:34:37;9.30;99.90
41058;DHT22;66768;48.884;2.258;2023-12-20T03:37:04;9.40;99.90
41058;DHT22;66768;48.884;2.258;2023-12-20T03:39:31;9.40;99.90
41058;DHT22;66768;48.884;2.258;2023-12-20T03:41:58;9.40;99.90
41058;DHT22;66768;48.884;2.258;2023-12-20T03:44:25;9.40;99.90
41058;DHT22;66768;48.884;2.258;2023-12-20T03:46:51;9.30;99.90
41058;DHT22;66768;48.884;2.258;2023-12-20T03:49:20;9.30;99.90
41058;DHT22;66768;48.884;2.258;2023-12-20T03:51:46;9.30;99.90
41058;DHT22;66768;48.884;2.258;2023-12-20T03:54:13;9.30;99.90
41058;DHT22;66768;48.884;2.258;2023-12-20T03:56:40;9.30;99.90
41058;DHT22;66768;48.884;2.258;2023-12-20T03:59:07;9.30;99.90
41058;DHT22;66768;48.884;2.258;2023-12-20T04:01:34;9.30;99.90
41058;DHT22;66768;48.884;2.258;2023-12-20T04:04:01;9.30;99.90
41058;DHT22;66768;48.884;2.258;2023-12-20T04:06:29;9.30;99.90
41058;DHT22;66768;48.884;2.258;2023-12-20T04:08:56;9.30;99.90
41058;DHT22;66768;48.884;2.258;2023-12-20T04:11:23;9.20;99.90
41058;DHT22;66768;48.884;2.258;2023-12-20T04:13:50;9.20;99.90
41058;DHT22;66768;48.884;2.258;2023-12-20T04:16:17;9.20;99.90
41058;DHT22;66768;48.884;2.258;2023-12-20T04:18:44;9.30;99.90
41058;DHT22;66768;48.884;2.258;2023-12-20T04:21:11;9.20;99.90
41058;DHT22;66768;48.884;2.258;2023-12-20T04:23:39;9.20;99.90
41058;DHT22;66768;48.884;2.258;2023-12-20T04:26:06;9.10;99.90
41058;DHT22;66768;48.884;2.258;2023-12-20T04:28:33;9.10;99.90
41058;DHT22;66768;48.884;2.258;2023-12-20T04:30:59;9.10;99.90
41058;DHT22;66768;48.884;2.258;2023-12-20T04:33:26;9.10;99.90
41058;DHT22;66768;48.884;2.258;2023-12-20T04:35:53;9.10;99.90
41058;DHT22;66768;48.884;2.258;2023-12-20T04:38:20;9.10;99.90
41058;DHT22;66768;48.884;2.258;2023-12-20T04:40:48;9.10;99.90
41058;DHT22;66768;48.884;2.258;2023-12-20T04:43:15;9.10;99.90
41058;DHT22;66768;48.884;2.258;2023-12-20T04:45:42;9.00;99.90
41058;DHT22;66768;48.884;2.258;2023-12-20T04:48:09;9.00;99.90
41058;DHT22;66768;48.884;2.258;2023-12-20T04:50:36;9.00;99.90
41058;DHT22;66768;48.884;2.258;2023-12-20T04:53:03;9.00;99.90
41058;DHT22;66768;48.884;2.258;2023-12-20T04:55:30;9.00;99.90
41058;DHT22;66768;48.884;2.258;2023-12-20T04:57:58;8.90;99.90
41058;DHT22;66768;48.884;2.258;2023-12-20T05:00:25;8.90;99.90
41058;DHT22;66768;48.884;2.258;2023-12-20T05:02:52;8.90;99.90
41058;DHT22;66768;48.884;2.258;2023-12-20T05:05:18;8.90;99.90
41058;DHT22;66768;48.884;2.258;2023-12-20T05:07:45;8.90;99.90
41058;DHT22;66768;48.884;2.258;2023-12-20T05:10:12;8.80;99.90
41058;DHT22;66768;48.884;2.258;2023-12-20T05:12:39;8.90;99.90
41058;DHT22;66768;48.884;2.258;2023-12-20T05:15:08;8.80;99.90
41058;DHT22;66768;48.884;2.258;2023-12-20T05:17:35;8.80;99.90
41058;DHT22;66768;48.884;2.258;2023-12-20T05:20:02;8.80;99.90
41058;DHT22;66768;48.884;2.258;2023-12-20T05:22:29;8.80;99.90
41058;DHT22;66768;48.884;2.258;2023-12-20T05:24:56;8.80;99.90
41058;DHT22;66768;48.884;2.258;2023-12-20T05:27:23;8.80;99.90
41058;DHT22;66768;48.884;2.258;2023-12-20T05:29:49;8.80;99.90
41058;DHT22;66768;48.884;2.258;2023-12-20T05:32:18;8.80;99.90
41058;DHT22;66768;48.884;2.258;2023-12-20T05:34:45;8.90;99.90
41058;DHT22;66768;48.884;2.258;2023-12-20T05:37:12;8.80;99.90
41058;DHT22;66768;48.884;2.258;2023-12-20T05:39:38;8.80;99.90
41058;DHT22;66768;48.884;2.258;2023-12-20T05:42:05;8.80;99.90
41058;DHT22;66768;48.884;2.258;2023-12-20T05:44:32;8.90;99.90
41058;DHT22;66768;48.884;2.258;2023-12-20T05:46:59;8.80;99.90
41058;DHT22;66768;48.884;2.258;2023-12-20T05:49:27;8.80;99.90
41058;DHT22;66768;48.884;2.258;2023-12-20T05:51:54;8.80;99.90
41058;DHT22;66768;48.884;2.258;2023-12-20T05:54:21;8.80;99.90
41058;DHT22;66768;48.884;2.258;2023-12-20T05:56:48;8.80;99.90
41058;DHT22;66768;48.884;2.258;2023-12-20T05:59:16;8.80;99.90
41058;DHT22;66768;48.884;2.258;2023-12-20T06:01:43;8.80;99.90
41058;DHT22;66768;48.884;2.258;2023-12-20T06:04:10;8.80;99.90
41058;DHT22;66768;48.884;2.258;2023-12-20T06:06:42;8.80;99.90
41058;DHT22;66768;48.884;2.258;2023-12-20T06:09:09;8.70;99.90
41058;DHT22;66768;48.884;2.258;2023-12-20T06:11:36;8.70;99.90
41058;DHT22;66768;48.884;2.258;2023-12-20T06:14:03;8.70;99.90
41058;DHT22;66768;48.884;2.258;2023-12-20T06:16:30;8.70;99.90
41058;DHT22;66768;48.884;2.258;2023-12-20T06:18:57;8.70;99.90
41058;DHT22;66768;48.884;2.258;2023-12-20T06:21:24;8.80;99.90
41058;DHT22;66768;48.884;2.258;2023-12-20T06:23:52;8.70;99.90
41058;DHT22;66768;48.884;2.258;2023-12-20T06:26:19;8.80;99.90
41058;DHT22;66768;48.884;2.258;2023-12-20T06:28:46;8.80;99.90
41058;DHT22;66768;48.884;2.258;2023-12-20T06:31:13;8.80;99.90
41058;DHT22;66768;48.884;2.258;2023-12-20T06:33:40;8.70;99.90
41058;DHT22;66768;48.884;2.258;2023-12-20T06:36:07;8.80;99.90
41058;DHT22;66768;48.884;2.258;2023-12-20T06:38:34;8.70;99.90
41058;DHT22;66768;48.884;2.258;2023-12-20T06:41:03;8.70;99.90
41058;DHT22;66768;48.884;2.258;2023-12-20T06:43:29;8.70;99.90
41058;DHT22;66768;48.884;2.258;2023-12-20T06:45:57;8.70;99.90
41058;DHT22;66768;48.884;2.258;2023-12-20T06:48:24;8.70;99.90
41058;DHT22;66768;48.884;2.258;2023-12-20T06:50:51;8.70;99.90
41058;DHT22;66768;48.884;2.258;2023-12-20T06:53:18;8.70;99.90
41058;DHT22;66768;48.884;2.258;2023-12-20T06:55:45;8.70;99.90
41058;DHT22;66768;48.884;2.258;2023-12-20T06:58:13;8.70;99.90
41058;DHT22;66768;48.884;2.258;2023-12-20T07:00:40;8.70;99.90
41058;DHT22;66768;48.884;2.258;2023-12-20T07:03:07;8.70;99.90
41058;DHT22;66768;48.884;2.258;2023-12-20T07:05:34;8.70;99.90
41058;DHT22;66768;48.884;2.258;2023-12-20T07:08:00;8.60;99.90
41058;DHT22;66768;48.884;2.258;2023-12-20T07:10:27;8.60;99.90
41058;DHT22;66768;48.884;2.258;2023-12-20T07:12:54;8.70;99.90
41058;DHT22;66768;48.884;2.258;2023-12-20T07:15:23;8.60;99.90
41058;DHT22;66768;48.884;2.258;2023-12-20T07:17:49;8.60;99.90
41058;DHT22;66768;48.884;2.258;2023-12-20T07:20:16;8.60;99.90
41058;DHT22;66768;48.884;2.258;2023-12-20T07:22:43;8.60;99.90
41058;DHT22;66768;48.884;2.258;2023-12-20T07:25:10;8.60;99.90
41058;DHT22;66768;48.884;2.258;2023-12-20T07:27:37;8.50;99.90
41058;DHT22;66768;48.884;2.258;2023-12-20T07:30:05;8.60;99.90
41058;DHT22;66768;48.884;2.258;2023-12-20T07:32:33;8.60;99.90
41058;DHT22;66768;48.884;2.258;2023-12-20T07:35:01;8.60;99.90
41058;DHT22;66768;48.884;2.258;2023-12-20T07:37:28;8.60;99.90
41058;DHT22;66768;48.884;2.258;2023-12-20T07:39:55;8.60;99.90
41058;DHT22;66768;48.884;2.258;2023-12-20T07:42:22;8.60;99.90
41058;DHT22;66768;48.884;2.258;2023-12-20T07:44:49;8.60;99.90
41058;DHT22;66768;48.884;2.258;2023-12-20T07:47:16;8.60;99.90
41058;DHT22;66768;48.884;2.258;2023-12-20T07:49:48;8.60;99.90
41058;DHT22;66768;48.884;2.258;2023-12-20T07:52:16;8.60;99.90
41058;DHT22;66768;48.884;2.258;2023-12-20T07:54:44;8.60;99.90
41058;DHT22;66768;48.884;2.258;2023-12-20T07:57:11;8.60;99.90
41058;DHT22;66768;48.884;2.258;2023-12-20T07:59:38;8.60;99.90
41058;DHT22;66768;48.884;2.258;2023-12-20T08:02:05;8.70;99.90
41058;DHT22;66768;48.884;2.258;2023-12-20T08:04:32;8.60;99.90
41058;DHT22;66768;48.884;2.258;2023-12-20T08:07:00;8.60;99.90
41058;DHT22;66768;48.884;2.258;2023-12-20T08:09:27;8.60;99.90
41058;DHT22;66768;48.884;2.258;2023-12-20T08:11:54;8.60;99.90
41058;DHT22;66768;48.884;2.258;2023-12-20T08:14:21;8.60;99.90
41058;DHT22;66768;48.884;2.258;2023-12-20T08:16:48;8.60;99.90
41058;DHT22;66768;48.884;2.258;2023-12-20T08:19:15;8.60;99.90
41058;DHT22;66768;48.884;2.258;2023-12-20T08:21:42;8.60;99.90
41058;DHT22;66768;48.884;2.258;2023-12-20T08:24:10;8.70;99.90
41058;DHT22;66768;48.884;2.258;2023-12-20T08:26:37;8.60;99.90
41058;DHT22;66768;48.884;2.258;2023-12-20T08:29:04;8.60;99.90
41058;DHT22;66768;48.884;2.258;2023-12-20T08:31:31;8.70;99.90
41058;DHT22;66768;48.884;2.258;2023-12-20T08:33:58;8.70;99.90
41058;DHT22;66768;48.884;2.258;2023-12-20T08:36:25;8.70;99.90
41058;DHT22;66768;48.884;2.258;2023-12-20T08:38:52;8.70;99.90
41058;DHT22;66768;48.884;2.258;2023-12-20T08:41:20;8.80;99.90
41058;DHT22;66768;48.884;2.258;2023-12-20T08:43:47;8.70;99.90
41058;DHT22;66768;48.884;2.258;2023-12-20T08:46:14;8.80;99.90
41058;DHT22;66768;48.884;2.258;2023-12-20T08:48:41;8.80;99.90
41058;DHT22;66768;48.884;2.258;2023-12-20T08:51:08;8.80;99.90
41058;DHT22;66768;48.884;2.258;2023-12-20T08:53:36;8.80;99.90
41058;DHT22;66768;48.884;2.258;2023-12-20T08:56:04;8.80;99.90
41058;DHT22;66768;48.884;2.258;2023-12-20T08:58:32;8.90;99.90
41058;DHT22;66768;48.884;2.258;2023-12-20T09:01:01;8.90;99.90
41058;DHT22;66768;48.884;2.258;2023-12-20T09:03:28;9.00;99.90
41058;DHT22;66768;48.884;2.258;2023-12-20T09:05:55;9.00;99.90
41058;DHT22;66768;48.884;2.258;2023-12-20T09:08:22;9.00;99.90
41058;DHT22;66768;48.884;2.258;2023-12-20T09:10:49;9.10;99.90
41058;DHT22;66768;48.884;2.258;2023-12-20T09:13:16;9.10;99.90
41058;DHT22;66768;48.884;2.258;2023-12-20T09:15:44;9.20;99.90
41058;DHT22;66768;48.884;2.258;2023-12-20T09:18:11;9.20;99.90
41058;DHT22;66768;48.884;2.258;2023-12-20T09:20:38;9.20;99.90
41058;DHT22;66768;48.884;2.258;2023-12-20T09:23:05;9.30;99.90
41058;DHT22;66768;48.884;2.258;2023-12-20T09:25:32;9.30;99.90
41058;DHT22;66768;48.884;2.258;2023-12-20T09:27:58;9.30;99.90
41058;DHT22;66768;48.884;2.258;2023-12-20T09:30:25;9.40;99.90
41058;DHT22;66768;48.884;2.258;2023-12-20T09:32:54;9.40;99.90
41058;DHT22;66768;48.884;2.258;2023-12-20T09:35:20;9.40;99.90
41058;DHT22;66768;48.884;2.258;2023-12-20T09:37:47;9.30;99.90
41058;DHT22;66768;48.884;2.258;2023-12-20T09:40:18;9.40;99.90
41058;DHT22;66768;48.884;2.258;2023-12-20T09:42:54;9.40;99.90
41058;DHT22;66768;48.884;2.258;2023-12-20T09:45:22;9.40;99.90
41058;DHT22;66768;48.884;2.258;2023-12-20T09:47:50;9.50;99.90
41058;DHT22;66768;48.884;2.258;2023-12-20T09:50:19;9.50;99.90
41058;DHT22;66768;48.884;2.258;2023-12-20T09:52:50;9.50;99.90
41058;DHT22;66768;48.884;2.258;2023-12-20T09:55:17;9.50;99.90
41058;DHT22;66768;48.884;2.258;2023-12-20T09:57:45;9.60;99.90
41058;DHT22;66768;48.884;2.258;2023-12-20T10:00:13;9.50;99.90
41058;DHT22;66768;48.884;2.258;2023-12-20T10:02:45;9.60;99.90
41058;DHT22;66768;48.884;2.258;2023-12-20T10:05:16;9.60;99.90
41058;DHT22;66768;48.884;2.258;2023-12-20T10:07:46;9.60;99.90
41058;DHT22;66768;48.884;2.258;2023-12-20T10:10:13;9.60;99.90
41058;DHT22;66768;48.884;2.258;2023-12-20T10:13:01;9.60;99.90
41058;DHT22;66768;48.884;2.258;2023-12-20T10:15:28;9.70;99.90
41058;DHT22;66768;48.884;2.258;2023-12-20T10:17:54;9.60;99.90
41058;DHT22;66768;48.884;2.258;2023-12-20T10:20:21;9.70;99.90
41058;DHT22;66768;48.884;2.258;2023-12-20T10:22:50;9.70;99.90
41058;DHT22;66768;48.884;2.258;2023-12-20T10:25:19;9.70;99.90
41058;DHT22;66768;48.884;2.258;2023-12-20T10:27:46;9.70;99.90
41058;DHT22;66768;48.884;2.258;2023-12-20T10:30:14;9.70;99.90
41058;DHT22;66768;48.884;2.258;2023-12-20T10:32:41;9.80;99.90
41058;DHT22;66768;48.884;2.258;2023-12-20T10:35:09;9.70;99.90
41058;DHT22;66768;48.884;2.258;2023-12-20T10:37:37;9.80;99.90
41058;DHT22;66768;48.884;2.258;2023-12-20T10:40:06;9.80;99.90
41058;DHT22;66768;48.884;2.258;2023-12-20T10:42:33;9.80;99.90
41058;DHT22;66768;48.884;2.258;2023-12-20T10:45:03;9.80;99.90
41058;DHT22;66768;48.884;2.258;2023-12-20T10:47:31;9.80;99.90
41058;DHT22;66768;48.884;2.258;2023-12-20T10:49:59;9.90;99.90
41058;DHT22;66768;48.884;2.258;2023-12-20T10:52:29;9.90;99.90
41058;DHT22;66768;48.884;2.258;2023-12-20T10:54:59;9.90;99.90
41058;DHT22;66768;48.884;2.258;2023-12-20T10:57:28;9.90;99.90
41058;DHT22;66768;48.884;2.258;2023-12-20T11:00:01;9.90;99.90
41058;DHT22;66768;48.884;2.258;2023-12-20T11:02:39;9.90;99.90
41058;DHT22;66768;48.884;2.258;2023-12-20T11:05:28;9.90;99.90
41058;DHT22;66768;48.884;2.258;2023-12-20T11:08:13;10.00;99.90
41058;DHT22;66768;48.884;2.258;2023-12-20T11:11:03;10.00;99.90
41058;DHT22;66768;48.884;2.258;2023-12-20T11:13:43;10.00;99.90
41058;DHT22;66768;48.884;2.258;2023-12-20T11:16:28;10.00;99.90
41058;DHT22;66768;48.884;2.258;2023-12-20T11:19:12;10.00;99.90
41058;DHT22;66768;48.884;2.258;2023-12-20T11:22:04;10.00;99.90
41058;DHT22;66768;48.884;2.258;2023-12-20T11:24:44;10.00;99.90
41058;DHT22;66768;48.884;2.258;2023-12-20T11:27:23;10.10;99.90
41058;DHT22;66768;48.884;2.258;2023-12-20T11:30:04;10.10;99.90
41058;DHT22;66768;48.884;2.258;2023-12-20T11:32:53;10.10;99.90
41058;DHT22;66768;48.884;2.258;2023-12-20T11:35:38;10.20;99.90
41058;DHT22;66768;48.884;2.258;2023-12-20T11:38:25;10.20;99.90
41058;DHT22;66768;48.884;2.258;2023-12-20T11:41:09;10.20;99.90
41058;DHT22;66768;48.884;2.258;2023-12-20T11:43:51;10.30;99.90
41058;DHT22;66768;48.884;2.258;2023-12-20T11:46:42;10.30;99.90
41058;DHT22;66768;48.884;2.258;2023-12-20T11:49:24;10.40;99.90
41058;DHT22;66768;48.884;2.258;2023-12-20T11:51:58;10.40;99.90
41058;DHT22;66768;48.884;2.258;2023-12-20T11:54:34;10.50;99.90
41058;DHT22;66768;48.884;2.258;2023-12-20T11:57:16;10.50;99.90
41058;DHT22;66768;48.884;2.258;2023-12-20T11:59:57;10.60;99.90
41058;DHT22;66768;48.884;2.258;2023-12-20T12:02:34;10.60;99.90
41058;DHT22;66768;48.884;2.258;2023-12-20T12:05:00;10.70;99.90
41058;DHT22;66768;48.884;2.258;2023-12-20T12:07:27;10.60;99.90
41058;DHT22;66768;48.884;2.258;2023-12-20T12:09:54;10.70;99.90
41058;DHT22;66768;48.884;2.258;2023-12-20T12:12:21;10.70;99.90
41058;DHT22;66768;48.884;2.258;2023-12-20T12:14:49;10.70;99.90
41058;DHT22;66768;48.884;2.258;2023-12-20T12:17:16;10.70;99.90
41058;DHT22;66768;48.884;2.258;2023-12-20T12:19:44;10.70;99.90
41058;DHT22;66768;48.884;2.258;2023-12-20T12:22:13;10.70;99.90
41058;DHT22;66768;48.884;2.258;2023-12-20T12:24:43;10.70;99.90
41058;DHT22;66768;48.884;2.258;2023-12-20T12:27:10;10.60;99.90
41058;DHT22;66768;48.884;2.258;2023-12-20T12:29:38;10.60;99.90
41058;DHT22;66768;48.884;2.258;2023-12-20T12:32:05;10.60;99.90
41058;DHT22;66768;48.884;2.258;2023-12-20T12:34:33;10.60;99.90
41058;DHT22;66768;48.884;2.258;2023-12-20T12:37:03;10.50;99.90
41058;DHT22;66768;48.884;2.258;2023-12-20T12:39:30;10.50;99.90
41058;DHT22;66768;48.884;2.258;2023-12-20T12:41:57;10.50;99.90
41058;DHT22;66768;48.884;2.258;2023-12-20T12:44:24;10.50;99.90
41058;DHT22;66768;48.884;2.258;2023-12-20T12:46:51;10.50;99.90
41058;DHT22;66768;48.884;2.258;2023-12-20T12:49:19;10.60;99.90
41058;DHT22;66768;48.884;2.258;2023-12-20T12:51:46;10.60;99.90
41058;DHT22;66768;48.884;2.258;2023-12-20T12:54:15;10.60;99.90
41058;DHT22;66768;48.884;2.258;2023-12-20T12:56:43;10.60;99.90
41058;DHT22;66768;48.884;2.258;2023-12-20T12:59:12;10.60;99.90
41058;DHT22;66768;48.884;2.258;2023-12-20T13:01:39;10.70;99.90
41058;DHT22;66768;48.884;2.258;2023-12-20T13:04:06;10.70;99.90
41058;DHT22;66768;48.884;2.258;2023-12-20T13:06:36;10.70;99.90
41058;DHT22;66768;48.884;2.258;2023-12-20T13:09:03;10.70;99.90
41058;DHT22;66768;48.884;2.258;2023-12-20T13:11:33;10.80;99.90
41058;DHT22;66768;48.884;2.258;2023-12-20T13:14:00;10.80;99.90
41058;DHT22;66768;48.884;2.258;2023-12-20T13:16:29;10.70;99.90
41058;DHT22;66768;48.884;2.258;2023-12-20T13:18:56;10.70;99.90
41058;DHT22;66768;48.884;2.258;2023-12-20T13:21:25;10.70;99.90
41058;DHT22;66768;48.884;2.258;2023-12-20T13:23:52;10.80;99.90
41058;DHT22;66768;48.884;2.258;2023-12-20T13:26:19;10.70;99.90
41058;DHT22;66768;48.884;2.258;2023-12-20T13:28:48;10.80;99.90
41058;DHT22;66768;48.884;2.258;2023-12-20T13:31:15;10.80;99.90
41058;DHT22;66768;48.884;2.258;2023-12-20T13:33:41;10.80;99.90
41058;DHT22;66768;48.884;2.258;2023-12-20T13:36:08;10.90;99.90
41058;DHT22;66768;48.884;2.258;2023-12-20T13:38:35;10.90;99.90
41058;DHT22;66768;48.884;2.258;2023-12-20T13:41:02;11.00;99.90
41058;DHT22;66768;48.884;2.258;2023-12-20T13:43:30;11.00;99.90
41058;DHT22;66768;48.884;2.258;2023-12-20T13:45:59;11.00;99.90
41058;DHT22;66768;48.884;2.258;2023-12-20T13:48:26;11.00;99.90
41058;DHT22;66768;48.884;2.258;2023-12-20T13:50:53;11.00;99.90
41058;DHT22;66768;48.884;2.258;2023-12-20T13:53:20;11.00;99.90
41058;DHT22;66768;48.884;2.258;2023-12-20T13:55:47;11.00;99.90
41058;DHT22;66768;48.884;2.258;2023-12-20T13:58:14;11.10;99.90
41058;DHT22;66768;48.884;2.258;2023-12-20T14:00:41;11.10;99.90
41058;DHT22;66768;48.884;2.258;2023-12-20T14:03:09;11.10;99.90
41058;DHT22;66768;48.884;2.258;2023-12-20T14:05:36;11.10;99.90
41058;DHT22;66768;48.884;2.258;2023-12-20T14:08:03;11.10;99.90
41058;DHT22;66768;48.884;2.258;2023-12-20T14:10:30;11.10;99.90
41058;DHT22;66768;48.884;2.258;2023-12-20T14:12:57;11.10;99.90
41058;DHT22;66768;48.884;2.258;2023-12-20T14:15:24;11.10;99.90
41058;DHT22;66768;48.884;2.258;2023-12-20T14:17:51;11.10;99.90
41058;DHT22;66768;48.884;2.258;2023-12-20T14:20:20;11.00;99.90
41058;DHT22;66768;48.884;2.258;2023-12-20T14:22:47;11.00;99.90
41058;DHT22;66768;48.884;2.258;2023-12-20T14:25:14;11.00;99.90
41058;DHT22;66768;48.884;2.258;2023-12-20T14:27:41;10.90;99.90
41058;DHT22;66768;48.884;2.258;2023-12-20T14:30:10;10.90;99.90
41058;DHT22;66768;48.884;2.258;2023-12-20T14:32:39;10.90;99.90
41058;DHT22;66768;48.884;2.258;2023-12-20T14:35:06;10.90;99.90
41058;DHT22;66768;48.884;2.258;2023-12-20T14:37:35;10.90;99.90
41058;DHT22;66768;48.884;2.258;2023-12-20T14:40:05;10.80;99.90
41058;DHT22;66768;48.884;2.258;2023-12-20T14:42:34;10.90;99.90
41058;DHT22;66768;48.884;2.258;2023-12-20T14:45:01;10.90;99.90
41058;DHT22;66768;48.884;2.258;2023-12-20T14:47:28;10.80;99.90
41058;DHT22;66768;48.884;2.258;2023-12-20T14:49:55;10.90;99.90
41058;DHT22;66768;48.884;2.258;2023-12-20T14:52:22;10.80;99.90
41058;DHT22;66768;48.884;2.258;2023-12-20T14:54:50;10.90;99.90
41058;DHT22;66768;48.884;2.258;2023-12-20T14:57:17;10.90;99.90
41058;DHT22;66768;48.884;2.258;2023-12-20T14:59:44;10.90;99.90
41058;DHT22;66768;48.884;2.258;2023-12-20T15:02:11;10.90;99.90
41058;DHT22;66768;48.884;2.258;2023-12-20T15:04:38;10.90;99.90
41058;DHT22;66768;48.884;2.258;2023-12-20T15:07:06;11.00;99.90
41058;DHT22;66768;48.884;2.258;2023-12-20T15:09:33;11.00;99.90
41058;DHT22;66768;48.884;2.258;2023-12-20T15:12:01;11.00;99.90
41058;DHT22;66768;48.884;2.258;2023-12-20T15:14:28;11.00;99.90
41058;DHT22;66768;48.884;2.258;2023-12-20T15:16:55;11.00;99.90
41058;DHT22;66768;48.884;2.258;2023-12-20T15:19:22;11.00;99.90
41058;DHT22;66768;48.884;2.258;2023-12-20T15:21:49;11.00;99.90
41058;DHT22;66768;48.884;2.258;2023-12-20T15:24:16;11.00;99.90
41058;DHT22;66768;48.884;2.258;2023-12-20T15:26:46;11.00;99.90
41058;DHT22;66768;48.884;2.258;2023-12-20T15:29:14;11.00;99.90
41058;DHT22;66768;48.884;2.258;2023-12-20T15:31:45;11.00;99.90
41058;DHT22;66768;48.884;2.258;2023-12-20T15:34:12;11.00;99.90
41058;DHT22;66768;48.884;2.258;2023-12-20T15:36:40;11.00;99.90
41058;DHT22;66768;48.884;2.258;2023-12-20T15:39:07;11.10;99.90
41058;DHT22;66768;48.884;2.258;2023-12-20T15:41:34;11.10;99.90
41058;DHT22;66768;48.884;2.258;2023-12-20T15:44:01;11.00;99.90
41058;DHT22;66768;48.884;2.258;2023-12-20T15:46:30;11.00;99.90